Time;durP1;ratioP1;P1;durP2;ratioP2;P2;SDS_P1;SDS_P2;PMS_P1;PMS_P2;Temp;Humidity;BMP_temperature;BMP_pressure;BME280_temperature;BME280_humidity;BME280_pressure;Samples;Min_cycle;Max_cycle;Signal;HPM_P1;HPM_P2
2022/01/13 00:01:19;;;;;;;;;;;-11.10;87.40;;;;;;5038404;28;19939;-88
2022/01/13 00:03:45;;;;;;;;;;;-11.10;88.20;;;;;;5038072;28;19920;-89
2022/01/13 00:06:11;;;;;;;;;;;-11.20;88.10;;;;;;5037944;28;20343;-88
2022/01/13 00:08:37;;;;;;;;;;;-11.20;88.20;;;;;;5038004;28;19955;-88
2022/01/13 00:11:03;;;;;;;;;;;-11.30;88.90;;;;;;5038319;28;19959;-88
2022/01/13 00:13:35;;;;;;;;;;;-11.30;89.20;;;;;;5037774;28;19923;-88
2022/01/13 00:18:50;;;;;;;;;;;-11.30;89.30;;;;;;5055785;28;19963;-88
2022/01/13 00:21:29;;;;;;;;;;;-11.40;89.20;;;;;;5038187;28;20264;-88
2022/01/13 00:23:58;;;;;;;;;;;-11.40;89.70;;;;;;5034482;28;19933;-88
2022/01/13 00:26:26;;;;;;;;;;;-11.50;90.00;;;;;;5019335;28;19947;-88
2022/01/13 00:28:52;;;;;;;;;;;-11.50;90.00;;;;;;5034018;28;19952;-88
2022/01/13 00:31:26;;;;;;;;;;;-11.50;90.10;;;;;;5024518;28;19925;-89
2022/01/13 00:33:54;;;;;;;;;;;-11.50;90.30;;;;;;5023649;28;19959;-88
2022/01/13 00:36:21;;;;;;;;;;;-11.50;90.40;;;;;;5023547;28;19917;-88
2022/01/13 00:38:46;;;;;;;;;;;-11.50;90.50;;;;;;5039716;28;19909;-88
2022/01/13 00:41:12;;;;;;;;;;;-11.50;90.60;;;;;;5017986;28;19909;-88
2022/01/13 00:43:40;;;;;;;;;;;-11.50;90.80;;;;;;5017811;28;19916;-88
2022/01/13 00:46:06;;;;;;;;;;;-11.60;91.00;;;;;;5017539;28;20345;-88
2022/01/13 00:48:32;;;;;;;;;;;-11.60;91.10;;;;;;5018056;28;19956;-88
2022/01/13 00:50:57;;;;;;;;;;;-11.60;91.20;;;;;;5017630;28;19971;-88
2022/01/13 00:53:23;;;;;;;;;;;-11.60;91.30;;;;;;5017797;28;19909;-88
2022/01/13 00:55:57;;;;;;;;;;;-11.70;91.30;;;;;;5016901;28;20012;-88
2022/01/13 00:58:28;;;;;;;;;;;-11.70;91.60;;;;;;5017600;28;19916;-88
2022/01/13 01:00:53;;;;;;;;;;;-11.70;91.60;;;;;;5017651;28;19909;-88
2022/01/13 01:03:19;;;;;;;;;;;-11.60;91.80;;;;;;5017721;28;19916;-88
2022/01/13 01:05:45;;;;;;;;;;;-11.60;91.60;;;;;;5017604;28;19920;-87
2022/01/13 01:08:12;;;;;;;;;;;-11.60;91.60;;;;;;5017461;28;19909;-88
2022/01/13 01:10:38;;;;;;;;;;;-11.60;91.50;;;;;;5017242;28;20430;-88
2022/01/13 01:13:11;;;;;;;;;;;-11.70;91.70;;;;;;5018055;28;19931;-88
2022/01/13 01:15:38;;;;;;;;;;;-11.70;91.80;;;;;;5038856;28;19909;-89
2022/01/13 01:18:13;;;;;;;;;;;-11.70;91.70;;;;;;5038031;28;19909;-88
2022/01/13 01:20:49;;;;;;;;;;;-11.80;91.80;;;;;;5021229;28;20340;-87
2022/01/13 01:23:19;;;;;;;;;;;-11.80;92.00;;;;;;5039716;28;19913;-88
2022/01/13 01:25:58;;;;;;;;;;;-11.80;92.00;;;;;;5041576;28;19924;-88
2022/01/13 01:28:33;;;;;;;;;;;-11.80;92.00;;;;;;5041433;28;19909;-88
2022/01/13 01:30:58;;;;;;;;;;;-11.80;91.90;;;;;;5042375;28;19916;-88
2022/01/13 01:33:24;;;;;;;;;;;-11.80;92.00;;;;;;5041560;28;19921;-88
2022/01/13 01:35:49;;;;;;;;;;;-11.80;92.00;;;;;;5041167;28;19909;-90
2022/01/13 01:38:18;;;;;;;;;;;-11.70;92.00;;;;;;5041031;28;19912;-87
2022/01/13 01:40:44;;;;;;;;;;;-11.60;91.80;;;;;;5031701;28;19913;-88
2022/01/13 01:43:10;;;;;;;;;;;-11.60;91.80;;;;;;5021190;28;19979;-88
2022/01/13 01:45:43;;;;;;;;;;;-11.60;91.60;;;;;;5038684;28;19910;-88
2022/01/13 01:48:10;;;;;;;;;;;-11.70;91.40;;;;;;5020909;28;19910;-88
2022/01/13 01:50:37;;;;;;;;;;;-11.70;91.40;;;;;;5020432;28;19917;-88
2022/01/13 01:53:04;;;;;;;;;;;-11.80;91.50;;;;;;5021129;28;19945;-88
2022/01/13 01:55:29;;;;;;;;;;;-11.80;91.60;;;;;;5020622;28;20406;-88
2022/01/13 01:57:55;;;;;;;;;;;-11.90;91.80;;;;;;5020773;28;19913;-88
2022/01/13 02:00:22;;;;;;;;;;;-12.00;92.10;;;;;;5020252;28;19913;-88
2022/01/13 02:02:48;;;;;;;;;;;-12.10;92.40;;;;;;5020621;28;19913;-88
2022/01/13 02:05:14;;;;;;;;;;;-12.20;92.50;;;;;;5020328;28;19931;-88
2022/01/13 02:07:39;;;;;;;;;;;-12.20;92.50;;;;;;5020354;28;20344;-88
2022/01/13 02:10:05;;;;;;;;;;;-12.20;92.70;;;;;;5020390;28;19913;-88
2022/01/13 02:12:44;;;;;;;;;;;-12.20;92.60;;;;;;5037144;28;20014;-88
2022/01/13 02:17:37;;;;;;;;;;;-12.30;93.00;;;;;;5037693;28;20008;-88
2022/01/13 02:20:04;;;;;;;;;;;-12.30;92.90;;;;;;5020231;28;19913;-88
2022/01/13 02:22:29;;;;;;;;;;;-12.30;93.00;;;;;;5020014;28;20419;-88
2022/01/13 02:24:55;;;;;;;;;;;-12.40;93.30;;;;;;5019161;28;19929;-88
2022/01/13 02:27:21;;;;;;;;;;;-12.30;93.30;;;;;;5020067;28;19913;-88
2022/01/13 02:29:47;;;;;;;;;;;-12.30;93.30;;;;;;5037836;28;19996;-87
2022/01/13 02:32:12;;;;;;;;;;;-12.30;93.30;;;;;;5020134;28;19917;-88
2022/01/13 02:34:38;;;;;;;;;;;-12.40;93.40;;;;;;5020233;28;19909;-88
2022/01/13 02:37:04;;;;;;;;;;;-12.40;93.30;;;;;;5037773;28;19920;-88
2022/01/13 02:39:29;;;;;;;;;;;-12.40;93.30;;;;;;5020092;28;19913;-88
2022/01/13 02:41:55;;;;;;;;;;;-12.40;93.40;;;;;;5019728;28;19913;-88
2022/01/13 02:44:22;;;;;;;;;;;-12.40;93.40;;;;;;5019645;28;20008;-88
2022/01/13 02:49:15;;;;;;;;;;;-12.40;93.70;;;;;;5038185;28;20323;-88
2022/01/13 02:51:42;;;;;;;;;;;-12.40;93.70;;;;;;5019604;28;19959;-88
2022/01/13 02:54:08;;;;;;;;;;;-12.40;93.60;;;;;;5019882;28;20003;-88
2022/01/13 02:56:35;;;;;;;;;;;-12.30;93.60;;;;;;5020889;28;19917;-87
2022/01/13 02:59:00;;;;;;;;;;;-12.40;93.40;;;;;;5022396;28;19909;-87
2022/01/13 03:01:26;;;;;;;;;;;-12.40;93.50;;;;;;5021306;28;19909;-87
2022/01/13 03:03:52;;;;;;;;;;;-12.40;93.70;;;;;;5021103;28;19940;-89
2022/01/13 03:06:27;;;;;;;;;;;-12.50;93.70;;;;;;5024652;28;19951;-87
2022/01/13 03:08:53;;;;;;;;;;;-12.40;93.70;;;;;;5020922;28;20340;-89
2022/01/13 03:11:19;;;;;;;;;;;-12.40;93.50;;;;;;5025006;28;19917;-88
2022/01/13 03:13:45;;;;;;;;;;;-12.40;93.60;;;;;;5035578;28;19913;-89
2022/01/13 03:16:13;;;;;;;;;;;-12.40;93.50;;;;;;5038035;28;19977;-89
2022/01/13 03:18:38;;;;;;;;;;;-12.40;93.40;;;;;;5039564;28;19909;-88
2022/01/13 03:21:04;;;;;;;;;;;-12.40;93.50;;;;;;5024069;28;19975;-88
2022/01/13 03:23:30;;;;;;;;;;;-12.40;93.60;;;;;;5018885;28;19921;-88
2022/01/13 03:25:56;;;;;;;;;;;-12.40;93.60;;;;;;5019110;28;20050;-88
2022/01/13 03:28:30;;;;;;;;;;;-12.40;93.50;;;;;;5019019;28;19924;-88
2022/01/13 03:30:56;;;;;;;;;;;-12.40;93.70;;;;;;5019139;28;19924;-88
2022/01/13 03:33:23;;;;;;;;;;;-12.40;93.70;;;;;;5018992;28;19909;-88
2022/01/13 03:35:48;;;;;;;;;;;-12.30;93.50;;;;;;5018850;28;19916;-88
2022/01/13 03:38:14;;;;;;;;;;;-12.40;93.70;;;;;;5017802;28;20318;-88
2022/01/13 03:40:40;;;;;;;;;;;-12.40;93.80;;;;;;5019095;28;19909;-88
2022/01/13 03:43:05;;;;;;;;;;;-12.40;93.60;;;;;;5018904;28;20237;-88
2022/01/13 03:45:32;;;;;;;;;;;-12.40;94.00;;;;;;5018787;28;19909;-88
2022/01/13 03:48:00;;;;;;;;;;;-12.40;93.90;;;;;;5019128;28;20295;-88
2022/01/13 03:50:26;;;;;;;;;;;-12.40;94.40;;;;;;5018389;28;19924;-88
2022/01/13 03:53:04;;;;;;;;;;;-12.50;94.30;;;;;;5018897;28;19909;-88
2022/01/13 03:55:38;;;;;;;;;;;-12.50;94.50;;;;;;5018545;28;19963;-88
2022/01/13 03:58:23;;;;;;;;;;;-12.50;94.80;;;;;;5018687;28;20020;-88
2022/01/13 04:01:07;;;;;;;;;;;-12.60;95.00;;;;;;5018597;28;19957;-88
2022/01/13 04:03:32;;;;;;;;;;;-12.60;94.80;;;;;;5035840;28;19979;-88
2022/01/13 04:06:00;;;;;;;;;;;-12.50;94.90;;;;;;5018522;28;20353;-88
2022/01/13 04:08:25;;;;;;;;;;;-12.50;94.70;;;;;;5018428;28;20340;-88
2022/01/13 04:11:03;;;;;;;;;;;-12.50;94.70;;;;;;5018229;28;19961;-88
2022/01/13 04:16:14;;;;;;;;;;;-12.60;94.80;;;;;;5036544;28;19917;-88
2022/01/13 04:18:40;;;;;;;;;;;-12.60;94.80;;;;;;5018372;28;19932;-88
2022/01/13 04:21:06;;;;;;;;;;;-12.60;95.00;;;;;;5018776;28;19909;-88
2022/01/13 04:23:32;;;;;;;;;;;-12.60;94.80;;;;;;5018497;28;19928;-88
2022/01/13 04:25:58;;;;;;;;;;;-12.70;95.00;;;;;;5018279;28;19909;-88
2022/01/13 04:28:27;;;;;;;;;;;-12.70;95.20;;;;;;5018243;28;20272;-87
2022/01/13 04:31:00;;;;;;;;;;;-12.70;95.00;;;;;;5018212;28;19917;-88
2022/01/13 04:33:26;;;;;;;;;;;-12.70;95.20;;;;;;5018640;28;20264;-88
2022/01/13 04:35:52;;;;;;;;;;;-12.70;95.30;;;;;;5017997;28;19909;-88
2022/01/13 04:38:18;;;;;;;;;;;-12.70;95.60;;;;;;5017937;28;19916;-88
2022/01/13 04:40:44;;;;;;;;;;;-12.70;95.40;;;;;;5035631;28;19909;-88
2022/01/13 04:43:11;;;;;;;;;;;-12.70;95.50;;;;;;5017756;28;19971;-88
2022/01/13 04:45:36;;;;;;;;;;;-12.70;95.70;;;;;;5018155;28;19909;-88
2022/01/13 04:48:02;;;;;;;;;;;-12.70;95.50;;;;;;5018218;28;19913;-89
2022/01/13 04:50:28;;;;;;;;;;;-12.80;96.20;;;;;;5018087;28;19964;-89
2022/01/13 04:52:54;;;;;;;;;;;-12.80;96.10;;;;;;5018317;28;19910;-89
2022/01/13 04:55:25;;;;;;;;;;;-12.80;96.30;;;;;;5018332;28;19910;-89
2022/01/13 04:57:52;;;;;;;;;;;-12.80;96.20;;;;;;5017761;28;19918;-89
2022/01/13 05:00:17;;;;;;;;;;;-12.80;96.40;;;;;;5018017;28;19909;-89
2022/01/13 05:02:43;;;;;;;;;;;-12.80;96.30;;;;;;5017659;28;19932;-88
2022/01/13 05:05:09;;;;;;;;;;;-12.90;95.90;;;;;;5017808;28;19913;-88
2022/01/13 05:07:34;;;;;;;;;;;-12.90;96.30;;;;;;5017759;28;19913;-89
2022/01/13 05:10:00;;;;;;;;;;;-12.90;96.50;;;;;;5018385;28;19917;-89
2022/01/13 05:12:32;;;;;;;;;;;-12.90;96.70;;;;;;5017620;28;19923;-88
2022/01/13 05:15:02;;;;;;;;;;;-12.90;96.50;;;;;;5017887;28;20363;-88
2022/01/13 05:20:19;;;;;;;;;;;-12.90;96.40;;;;;;5035646;28;19931;-88
2022/01/13 05:22:44;;;;;;;;;;;-12.90;96.60;;;;;;5017771;28;19968;-88
2022/01/13 05:25:10;;;;;;;;;;;-12.90;96.80;;;;;;5017828;28;19921;-88
2022/01/13 05:27:36;;;;;;;;;;;-12.90;96.90;;;;;;5017400;28;19913;-88
2022/01/13 05:30:03;;;;;;;;;;;-12.90;97.00;;;;;;5017396;28;19916;-88
2022/01/13 05:32:29;;;;;;;;;;;-12.90;96.90;;;;;;5034719;28;20322;-88
2022/01/13 05:34:54;;;;;;;;;;;-12.80;97.00;;;;;;5018095;28;19913;-88
2022/01/13 05:37:20;;;;;;;;;;;-12.70;96.90;;;;;;5017990;28;19948;-88
2022/01/13 05:39:45;;;;;;;;;;;-12.70;96.50;;;;;;5035791;28;19916;-88
2022/01/13 05:42:11;;;;;;;;;;;-12.60;96.30;;;;;;5017872;28;19920;-88
2022/01/13 05:44:38;;;;;;;;;;;-12.60;96.40;;;;;;5017932;28;19996;-88
2022/01/13 05:47:05;;;;;;;;;;;-12.50;96.50;;;;;;5017445;28;19916;-88
2022/01/13 05:49:30;;;;;;;;;;;-12.50;96.40;;;;;;5017455;28;19909;-89
2022/01/13 05:51:56;;;;;;;;;;;-12.40;96.30;;;;;;5017649;28;19917;-89
2022/01/13 05:54:21;;;;;;;;;;;-12.40;96.30;;;;;;5016832;28;20430;-89
2022/01/13 05:56:47;;;;;;;;;;;-12.30;96.10;;;;;;5016980;28;19999;-88
2022/01/13 05:59:13;;;;;;;;;;;-12.30;96.10;;;;;;5017051;28;19963;-88
2022/01/13 06:01:38;;;;;;;;;;;-12.20;96.10;;;;;;5020191;28;19910;-90
2022/01/13 06:04:04;;;;;;;;;;;-12.20;95.80;;;;;;5038400;28;19917;-89
2022/01/13 06:06:30;;;;;;;;;;;-12.20;96.00;;;;;;5020807;28;19909;-89
2022/01/13 06:08:55;;;;;;;;;;;-12.10;96.00;;;;;;5021163;28;20305;-89
2022/01/13 06:11:26;;;;;;;;;;;-12.10;96.10;;;;;;5020314;28;20402;-89
2022/01/13 06:13:54;;;;;;;;;;;-12.00;96.20;;;;;;5038600;28;19913;-89
2022/01/13 06:16:23;;;;;;;;;;;-11.90;96.40;;;;;;5021109;28;19915;-89
2022/01/13 06:18:48;;;;;;;;;;;-11.90;96.50;;;;;;5020706;28;20411;-89
2022/01/13 06:21:14;;;;;;;;;;;-11.90;96.50;;;;;;5019910;28;19963;-88
2022/01/13 06:23:39;;;;;;;;;;;-11.80;96.50;;;;;;5020318;28;19921;-89
2022/01/13 06:26:06;;;;;;;;;;;-11.80;96.60;;;;;;5022299;28;19913;-89
2022/01/13 06:28:32;;;;;;;;;;;-11.60;96.70;;;;;;5035511;28;19909;-89
2022/01/13 06:30:57;;;;;;;;;;;-11.50;96.60;;;;;;5036773;28;20040;-88
2022/01/13 06:33:25;;;;;;;;;;;-11.40;96.50;;;;;;5029208;28;19909;-89
2022/01/13 06:35:51;;;;;;;;;;;-11.30;96.60;;;;;;5026819;28;19955;-90
2022/01/13 06:38:16;;;;;;;;;;;-11.10;96.40;;;;;;5024701;28;19913;-89
2022/01/13 06:40:43;;;;;;;;;;;-10.90;95.80;;;;;;5021050;28;20000;-88
2022/01/13 06:43:09;;;;;;;;;;;-10.80;95.70;;;;;;5021565;28;19959;-89
2022/01/13 06:45:35;;;;;;;;;;;-10.70;95.50;;;;;;5019752;28;19917;-89
2022/01/13 06:48:00;;;;;;;;;;;-10.60;94.90;;;;;;5020596;28;19994;-89
2022/01/13 06:50:26;;;;;;;;;;;-10.50;95.00;;;;;;5020564;28;19968;-89
2022/01/13 06:52:51;;;;;;;;;;;-10.50;94.70;;;;;;5019857;28;19909;-88
2022/01/13 06:55:17;;;;;;;;;;;-10.40;94.60;;;;;;5020208;28;19909;-90
2022/01/13 06:57:43;;;;;;;;;;;-10.30;94.40;;;;;;5019917;28;19909;-92
2022/01/13 07:00:09;;;;;;;;;;;-10.30;93.80;;;;;;5019516;28;19940;-90
2022/01/13 07:02:37;;;;;;;;;;;-10.20;93.30;;;;;;5020492;28;19913;-89
2022/01/13 07:05:03;;;;;;;;;;;-10.20;93.00;;;;;;5019824;28;19932;-90
2022/01/13 07:07:33;;;;;;;;;;;-10.10;93.40;;;;;;5020378;28;19909;-89
2022/01/13 07:09:58;;;;;;;;;;;-10.10;93.00;;;;;;5020008;28;19959;-89
2022/01/13 07:12:24;;;;;;;;;;;-10.00;93.80;;;;;;5019620;28;19921;-90
2022/01/13 07:14:52;;;;;;;;;;;-9.90;93.60;;;;;;5019909;28;19909;-89
2022/01/13 07:17:20;;;;;;;;;;;-9.80;93.60;;;;;;5019315;28;19917;-91
2022/01/13 07:19:56;;;;;;;;;;;-9.70;92.90;;;;;;5019993;28;19909;-91
2022/01/13 07:22:21;;;;;;;;;;;-9.60;93.20;;;;;;5019789;28;20372;-90
2022/01/13 07:24:47;;;;;;;;;;;-9.50;92.60;;;;;;4990131;28;19922;-89
2022/01/13 07:27:20;;;;;;;;;;;-9.40;92.60;;;;;;4996035;28;19938;-90
2022/01/13 07:29:48;;;;;;;;;;;-9.30;92.20;;;;;;4997016;28;20341;-91
2022/01/13 07:32:17;;;;;;;;;;;-9.30;92.40;;;;;;4996817;28;19918;-89
2022/01/13 07:34:46;;;;;;;;;;;-9.20;91.70;;;;;;4997120;28;20258;-89
2022/01/13 07:37:14;;;;;;;;;;;-9.20;91.20;;;;;;4997330;28;20381;-90
2022/01/13 07:39:40;;;;;;;;;;;-9.10;92.20;;;;;;4997452;28;19941;-90
2022/01/13 07:42:06;;;;;;;;;;;-9.00;92.90;;;;;;4997092;28;19936;-90
2022/01/13 07:44:34;;;;;;;;;;;-8.90;92.90;;;;;;4997416;28;19918;-90
2022/01/13 07:47:00;;;;;;;;;;;-8.70;93.00;;;;;;4981109;28;20016;-89
2022/01/13 07:49:34;;;;;;;;;;;-8.60;91.90;;;;;;4981259;28;19973;-89
2022/01/13 07:52:00;;;;;;;;;;;-8.50;92.70;;;;;;4997878;28;19918;-89
2022/01/13 07:54:30;;;;;;;;;;;-8.30;92.60;;;;;;4996471;28;19910;-90
2022/01/13 07:56:55;;;;;;;;;;;-8.20;92.00;;;;;;4981295;28;19988;-90
2022/01/13 07:59:21;;;;;;;;;;;-8.10;91.80;;;;;;4997543;28;19910;-91
2022/01/13 08:01:47;;;;;;;;;;;-8.00;91.60;;;;;;4997260;28;19916;-90
2022/01/13 08:04:13;;;;;;;;;;;-7.90;92.00;;;;;;4982305;28;19914;-90
2022/01/13 08:06:39;;;;;;;;;;;-7.80;91.70;;;;;;4999692;28;20126;-90
2022/01/13 08:09:04;;;;;;;;;;;-7.60;90.90;;;;;;4981633;28;19913;-90
2022/01/13 08:11:30;;;;;;;;;;;-7.60;90.90;;;;;;4997912;28;19925;-90
2022/01/13 08:13:56;;;;;;;;;;;-7.50;90.90;;;;;;4996876;28;19945;-90
2022/01/13 08:16:24;;;;;;;;;;;-7.40;90.80;;;;;;4981499;28;20246;-90
2022/01/13 08:21:35;;;;;;;;;;;-7.40;88.40;;;;;;4999278;28;19917;-91
2022/01/13 08:24:01;;;;;;;;;;;-7.50;89.60;;;;;;4996420;28;19922;-89
2022/01/13 08:26:27;;;;;;;;;;;-7.40;90.00;;;;;;4982607;28;19920;-90
2022/01/13 08:28:53;;;;;;;;;;;-7.30;89.40;;;;;;4998540;28;19917;-89
2022/01/13 08:31:21;;;;;;;;;;;-7.20;90.00;;;;;;4984090;28;19985;-91
2022/01/13 08:33:56;;;;;;;;;;;-7.10;90.10;;;;;;4999405;28;20365;-91
2022/01/13 08:36:22;;;;;;;;;;;-7.10;87.60;;;;;;5000240;28;19989;-90
2022/01/13 08:38:49;;;;;;;;;;;-7.10;86.70;;;;;;4983268;28;19991;-89
2022/01/13 08:41:20;;;;;;;;;;;-7.10;89.10;;;;;;4997809;28;19914;-90
2022/01/13 08:43:46;;;;;;;;;;;-6.90;90.70;;;;;;4997091;28;20288;-89
2022/01/13 08:46:12;;;;;;;;;;;-6.80;86.40;;;;;;4980169;28;19910;-90
2022/01/13 08:48:40;;;;;;;;;;;-6.70;88.60;;;;;;4980333;28;19914;-90
2022/01/13 08:51:08;;;;;;;;;;;-6.50;89.20;;;;;;4996139;28;19930;-90
2022/01/13 08:53:45;;;;;;;;;;;-6.40;89.10;;;;;;4997582;28;19910;-91
2022/01/13 08:56:14;;;;;;;;;;;-6.40;89.50;;;;;;4999088;28;20250;-90
2022/01/13 08:58:40;;;;;;;;;;;-6.20;88.50;;;;;;4998765;28;20333;-90
2022/01/13 09:01:07;;;;;;;;;;;-6.20;86.30;;;;;;4996795;28;19917;-91
2022/01/13 09:03:36;;;;;;;;;;;-6.10;86.20;;;;;;4996780;28;19921;-90
2022/01/13 09:06:14;;;;;;;;;;;-6.10;87.30;;;;;;4999752;28;19948;-90
2022/01/13 09:08:40;;;;;;;;;;;-6.00;86.40;;;;;;4996949;28;19910;-89
2022/01/13 09:11:06;;;;;;;;;;;-6.00;87.20;;;;;;4998699;28;19925;-89
2022/01/13 09:13:37;;;;;;;;;;;-5.90;85.70;;;;;;5013000;28;19913;-91
2022/01/13 09:16:04;;;;;;;;;;;-5.80;86.30;;;;;;5001216;28;19964;-90
2022/01/13 09:19:07;;;;;;;;;;;-5.80;84.10;;;;;;4999235;28;19965;-89
2022/01/13 09:21:37;;;;;;;;;;;-5.70;85.50;;;;;;5004070;28;19917;-89
2022/01/13 09:24:20;;;;;;;;;;;;;;;;;;;;;
2022/01/13 09:26:49;;;;;;;;;;;-5.50;84.70;;;;;;5039391;28;19977;-90
2022/01/13 09:29:15;;;;;;;;;;;-5.40;82.70;;;;;;5019450;28;20024;-90
2022/01/13 09:31:41;;;;;;;;;;;-5.30;85.30;;;;;;5016746;28;20384;-91
2022/01/13 09:34:10;;;;;;;;;;;-5.10;85.20;;;;;;5018587;28;20029;-90
2022/01/13 09:36:37;;;;;;;;;;;-5.10;82.90;;;;;;5029057;28;19917;-90
2022/01/13 09:39:06;;;;;;;;;;;-5.10;82.30;;;;;;5045547;28;19932;-91
2022/01/13 09:41:35;;;;;;;;;;;-5.00;84.20;;;;;;5032724;28;20012;-90
2022/01/13 09:44:04;;;;;;;;;;;-4.80;83.90;;;;;;5003865;28;20415;-91
2022/01/13 09:46:33;;;;;;;;;;;-4.70;83.50;;;;;;5002679;28;19933;-90
2022/01/13 09:49:07;;;;;;;;;;;-4.50;81.40;;;;;;5023449;28;19909;-90
2022/01/13 09:51:34;;;;;;;;;;;-4.40;78.30;;;;;;5034643;28;19925;-89
2022/01/13 09:54:02;;;;;;;;;;;-4.20;79.40;;;;;;5050396;28;19909;-93
2022/01/13 09:56:37;;;;;;;;;;;-4.10;76.10;;;;;;5066607;28;19897;-92
2022/01/13 09:59:02;;;;;;;;;;;-4.10;74.60;;;;;;5031940;28;19944;-91
2022/01/13 10:01:28;;;;;;;;;;;-4.10;75.60;;;;;;5027930;28;19968;-92
2022/01/13 10:04:01;;;;;;;;;;;-4.00;75.50;;;;;;5024778;28;20314;-92
2022/01/13 10:06:29;;;;;;;;;;;-3.90;72.90;;;;;;5026692;28;20008;-91
2022/01/13 10:08:57;;;;;;;;;;;-3.80;74.80;;;;;;5022006;28;19913;-89
2022/01/13 10:11:26;;;;;;;;;;;-3.70;75.40;;;;;;5019995;28;19969;-90
2022/01/13 10:14:15;;;;;;;;;;;-3.50;74.90;;;;;;5006844;28;19909;-90
2022/01/13 10:16:45;;;;;;;;;;;-3.40;75.90;;;;;;5023437;28;19932;-90
2022/01/13 10:19:33;;;;;;;;;;;-3.30;76.80;;;;;;5036825;28;19910;-89
2022/01/13 10:25:47;;;;;;;;;;;;;;;;;;;;;
2022/01/13 10:34:29;;;;;;;;;;;-2.70;73.80;;;;;;4958400;29;19910;-89
2022/01/13 10:37:15;;;;;;;;;;;-2.80;70.90;;;;;;4947540;28;20334;-88
2022/01/13 10:39:58;;;;;;;;;;;-2.80;73.60;;;;;;4977714;28;19911;-90
2022/01/13 10:45:14;;;;;;;;;;;-2.80;71.70;;;;;;5032572;28;19967;-89
2022/01/13 10:48:15;;;;;;;;;;;;;;;;;;;;;
2022/01/13 10:51:12;;;;;;;;;;;;;;;;;;;;;
2022/01/13 10:57:20;;;;;;;;;;;;;;;;;;;;;
2022/01/13 11:00:50;;;;;;;;;;;-2.80;72.30;;;;;;5036286;28;19999;-90
2022/01/13 11:06:00;;;;;;;;;;;-2.70;72.50;;;;;;5019400;28;20004;-90
2022/01/13 11:09:17;;;;;;;;;;;;;;;;;;;;;
2022/01/13 11:20:52;;;;;;;;;;;-2.70;71.20;;;;;;4969462;28;20008;-90
2022/01/13 11:23:39;;;;;;;;;;;;;;;;;;;;;
2022/01/13 11:32:42;;;;;;;;;;;-3.00;74.00;;;;;;4957839;29;19955;-90
2022/01/13 11:35:37;;;;;;;;;;;-2.90;74.60;;;;;;4959003;29;19922;-92
2022/01/13 11:38:11;;;;;;;;;;;-2.90;73.60;;;;;;4989298;28;19916;-90
2022/01/13 11:40:47;;;;;;;;;;;-2.90;73.40;;;;;;5017106;28;19961;-89
2022/01/13 11:43:30;;;;;;;;;;;-2.90;72.80;;;;;;5017455;28;20008;-89
2022/01/13 11:45:59;;;;;;;;;;;-3.00;73.30;;;;;;5016780;28;19909;-90
2022/01/13 11:48:30;;;;;;;;;;;-3.00;73.80;;;;;;5017671;28;20009;-89
2022/01/13 11:51:16;;;;;;;;;;;-3.10;74.10;;;;;;5016763;28;19928;-89
2022/01/13 12:13:24;;;;;;;;;;;-3.20;75.40;;;;;;4795777;30;19922;-92
2022/01/13 12:25:31;;;;;;;;;;;-3.40;77.50;;;;;;5016456;28;20032;-89
2022/01/13 12:28:08;;;;;;;;;;;;;;;;;;;;;
2022/01/13 12:30:39;;;;;;;;;;;-3.30;78.30;;;;;;5040043;28;19909;-89
2022/01/13 12:33:09;;;;;;;;;;;-3.20;77.80;;;;;;5027992;28;20269;-90
2022/01/13 12:35:48;;;;;;;;;;;-3.20;77.30;;;;;;5038389;28;19913;-90
2022/01/13 12:38:27;;;;;;;;;;;;;;;;;;;;;
2022/01/13 12:41:13;;;;;;;;;;;-3.30;78.00;;;;;;5054151;28;20006;-91
2022/01/13 12:44:00;;;;;;;;;;;-3.30;78.90;;;;;;5034075;28;19921;-89
2022/01/13 12:46:26;;;;;;;;;;;-3.20;79.30;;;;;;5038267;28;19916;-89
2022/01/13 12:48:53;;;;;;;;;;;-3.20;79.20;;;;;;5037959;28;19913;-89
2022/01/13 12:51:21;;;;;;;;;;;-3.20;79.30;;;;;;5038990;28;20429;-90
2022/01/13 12:53:53;;;;;;;;;;;-3.20;79.30;;;;;;5038062;28;19945;-89
2022/01/13 12:56:29;;;;;;;;;;;-3.30;79.60;;;;;;5024579;28;19962;-90
2022/01/13 12:58:56;;;;;;;;;;;-3.20;80.20;;;;;;5036782;28;19909;-88
2022/01/13 13:01:29;;;;;;;;;;;-3.30;80.60;;;;;;5034404;28;19909;-89
2022/01/13 13:04:08;;;;;;;;;;;-3.40;81.80;;;;;;5016486;28;20268;-90
2022/01/13 13:06:46;;;;;;;;;;;-3.40;82.10;;;;;;5027602;28;19913;-89
2022/01/13 13:09:18;;;;;;;;;;;-3.40;83.20;;;;;;5022866;28;19913;-89
2022/01/13 13:11:48;;;;;;;;;;;-3.50;84.10;;;;;;5040031;28;19917;-89
2022/01/13 13:14:22;;;;;;;;;;;-3.50;84.20;;;;;;5020575;28;19917;-89
2022/01/13 13:16:49;;;;;;;;;;;-3.50;85.00;;;;;;5039497;28;19940;-88
2022/01/13 13:19:15;;;;;;;;;;;-3.40;85.00;;;;;;5021231;28;20035;-89
2022/01/13 13:21:41;;;;;;;;;;;-3.40;85.30;;;;;;5037517;28;20017;-90
2022/01/13 13:24:22;;;;;;;;;;;;;;;;;;;;;
2022/01/13 13:30:05;;;;;;;;;;;-3.40;86.40;;;;;;5048845;28;19913;-91
2022/01/13 13:33:04;;;;;;;;;;;;;;;;;;;;;
2022/01/13 13:35:39;;;;;;;;;;;-3.40;87.20;;;;;;5040855;28;20000;-89
2022/01/13 13:41:40;;;;;;;;;;;-3.40;88.70;;;;;;5025190;28;20438;-94
2022/01/13 13:44:45;;;;;;;;;;;-3.40;90.00;;;;;;5040234;28;19957;-91
2022/01/13 13:51:02;;;;;;;;;;;;;;;;;;;;;
2022/01/13 13:54:00;;;;;;;;;;;-3.20;90.10;;;;;;5053959;28;19971;-91
2022/01/13 14:00:13;;;;;;;;;;;;;;;;;;;;;
2022/01/13 14:03:22;;;;;;;;;;;;;;;;;;;;;
2022/01/13 14:19:08;;;;;;;;;;;-3.10;92.30;;;;;;4860480;29;19920;-94
2022/01/13 14:22:20;;;;;;;;;;;;;;;;;;;;;
2022/01/13 14:25:11;;;;;;;;;;;-3.10;92.90;;;;;;4858652;29;19948;-93
2022/01/13 14:34:28;;;;;;;;;;;-3.10;92.70;;;;;;4827479;29;19945;-91
2022/01/13 14:48:56;;;;;;;;;;;;;;;;;;;;;
2022/01/13 14:52:01;;;;;;;;;;;;;;;;;;;;;
2022/01/13 14:57:45;;;;;;;;;;;-3.10;94.60;;;;;;4925092;29;19912;-93
2022/01/13 15:00:49;;;;;;;;;;;;;;;;;;;;;
2022/01/13 15:03:35;;;;;;;;;;;-3.00;95.00;;;;;;4924642;29;19911;-91
2022/01/13 15:09:54;;;;;;;;;;;-3.00;95.30;;;;;;4835701;29;19913;-90
2022/01/13 15:31:14;;;;;;;;;;;-3.10;97.80;;;;;;4873250;29;20028;-96
2022/01/13 15:33:40;;;;;;;;;;;-3.10;97.70;;;;;;4908601;29;19919;-93
2022/01/13 15:36:19;;;;;;;;;;;-3.10;98.30;;;;;;4921423;29;19911;-94
2022/01/13 15:38:44;;;;;;;;;;;-3.10;97.60;;;;;;4924993;29;19911;-93
2022/01/13 15:44:14;;;;;;;;;;;-3.00;97.90;;;;;;4929424;29;19933;-96
2022/01/13 15:47:01;;;;;;;;;;;-2.90;98.40;;;;;;4940207;29;19922;-94
2022/01/13 15:49:30;;;;;;;;;;;-2.90;97.80;;;;;;4976303;28;20304;-92
2022/01/13 15:51:56;;;;;;;;;;;-2.90;98.00;;;;;;5039781;28;19984;-94
2022/01/13 15:54:53;;;;;;;;;;;-2.90;98.20;;;;;;5039343;28;19917;-95
2022/01/13 15:57:19;;;;;;;;;;;-2.90;98.40;;;;;;5037981;28;19925;-95
2022/01/13 15:59:51;;;;;;;;;;;-2.90;98.60;;;;;;5039034;28;19923;-95
2022/01/13 16:02:19;;;;;;;;;;;-2.90;98.50;;;;;;5042778;28;19939;-94
2022/01/13 16:04:49;;;;;;;;;;;-2.90;98.60;;;;;;5044365;28;19913;-95
2022/01/13 16:07:15;;;;;;;;;;;-2.90;98.90;;;;;;5043734;28;19913;-95
2022/01/13 16:09:58;;;;;;;;;;;-2.90;98.80;;;;;;5061540;28;20047;-96
2022/01/13 16:12:31;;;;;;;;;;;-2.90;99.40;;;;;;5041854;28;20012;-96
2022/01/13 16:14:57;;;;;;;;;;;-2.90;99.30;;;;;;5026965;28;19967;-94
2022/01/13 16:17:31;;;;;;;;;;;-2.90;99.10;;;;;;5044532;28;20362;-96
2022/01/13 16:20:08;;;;;;;;;;;-2.90;99.90;;;;;;5046773;28;19914;-96
2022/01/13 16:25:27;;;;;;;;;;;-2.90;99.80;;;;;;5057831;28;19916;-92
2022/01/13 16:28:02;;;;;;;;;;;-2.90;99.80;;;;;;5059743;28;19936;-95
2022/01/13 16:30:30;;;;;;;;;;;-2.90;99.80;;;;;;5054444;28;19912;-94
2022/01/13 16:32:58;;;;;;;;;;;-2.80;99.90;;;;;;5047037;28;20016;-95
2022/01/13 16:35:27;;;;;;;;;;;-2.90;99.90;;;;;;5035362;28;19908;-93
2022/01/13 16:38:19;;;;;;;;;;;-2.90;99.90;;;;;;5036753;28;19980;-91
2022/01/13 16:40:50;;;;;;;;;;;-2.90;99.90;;;;;;5048456;28;20256;-92
2022/01/13 16:43:16;;;;;;;;;;;-2.80;99.90;;;;;;5042486;28;19913;-92
2022/01/13 16:52:31;;;;;;;;;;;-2.70;99.90;;;;;;4961769;29;19929;-94
2022/01/13 16:55:08;;;;;;;;;;;-2.70;99.90;;;;;;4947216;29;20340;-96
2022/01/13 16:57:40;;;;;;;;;;;-2.60;99.90;;;;;;5021435;28;19909;-93
2022/01/13 17:00:10;;;;;;;;;;;-2.60;99.90;;;;;;5002582;28;19930;-93
2022/01/13 17:02:38;;;;;;;;;;;-2.60;99.90;;;;;;5036387;28;19915;-92
2022/01/13 17:05:05;;;;;;;;;;;-2.60;99.90;;;;;;5002272;28;19959;-93
2022/01/13 17:07:36;;;;;;;;;;;-2.60;99.90;;;;;;5037702;28;19952;-94
2022/01/13 17:10:06;;;;;;;;;;;-2.50;99.90;;;;;;5042885;28;19909;-95
2022/01/13 17:12:41;;;;;;;;;;;-2.50;99.90;;;;;;5032054;28;19925;-93
2022/01/13 17:15:10;;;;;;;;;;;-2.50;99.90;;;;;;5009653;28;19909;-92
2022/01/13 17:17:37;;;;;;;;;;;-2.50;99.90;;;;;;5036318;28;19960;-91
2022/01/13 17:20:05;;;;;;;;;;;-2.50;99.90;;;;;;5019522;28;19913;-92
2022/01/13 17:22:36;;;;;;;;;;;-2.50;99.90;;;;;;5029229;28;19955;-96
2022/01/13 17:25:04;;;;;;;;;;;-2.50;99.90;;;;;;5020216;28;19909;-94
2022/01/13 17:33:36;;;;;;;;;;;-2.40;99.90;;;;;;4997541;28;19932;-93
2022/01/13 17:36:02;;;;;;;;;;;-2.40;99.90;;;;;;5038884;28;19933;-90
2022/01/13 17:38:35;;;;;;;;;;;-2.30;99.90;;;;;;5020137;28;19913;-93